Time;durP1;ratioP1;P1;durP2;ratioP2;P2;SDS_P1;SDS_P2;PMS_P1;PMS_P2;Temp;Humidity;BMP_temperature;BMP_pressure;BME280_temperature;BME280_humidity;BME280_pressure;Samples;Min_cycle;Max_cycle;Signal;HPM_P1;HPM_P2
2022/01/23 00:02:12;;;;;;;12.05;3.60;;;8.60;99.90;;;;;;5099646;28;20052;-84
2022/01/23 00:04:38;;;;;;;15.98;4.45;;;8.50;99.90;;;;;;5084179;28;20122;-84
2022/01/23 00:07:07;;;;;;;12.05;3.78;;;8.60;99.90;;;;;;5099447;28;20090;-83
2022/01/23 00:09:33;;;;;;;8.68;3.50;;;8.60;99.90;;;;;;5065856;28;20097;-83
2022/01/23 00:12:05;;;;;;;10.30;3.55;;;8.60;99.90;;;;;;5099516;28;20051;-83
2022/01/23 00:17:18;;;;;;;9.68;3.42;;;8.60;99.90;;;;;;5099860;28;20139;-83
2022/01/23 00:19:58;;;;;;;8.10;3.70;;;8.60;99.90;;;;;;5082976;28;20112;-83
2022/01/23 00:22:35;;;;;;;13.95;4.90;;;8.60;99.90;;;;;;5099612;28;20084;-83
2022/01/23 00:30:30;;;;;;;13.55;3.67;;;8.60;99.90;;;;;;5099714;28;20063;-84
2022/01/23 00:32:59;;;;;;;11.10;3.72;;;8.60;99.90;;;;;;5099569;28;20047;-84
2022/01/23 00:35:26;;;;;;;5.90;3.45;;;8.60;99.90;;;;;;5099647;28;20546;-83
2022/01/23 00:37:53;;;;;;;6.40;3.33;;;8.50;99.90;;;;;;5098979;28;20470;-83
2022/01/23 00:40:20;;;;;;;10.43;3.25;;;8.50;99.90;;;;;;5082962;28;20047;-84
2022/01/23 00:42:45;;;;;;;11.13;3.47;;;8.50;99.90;;;;;;5100333;28;20088;-83
2022/01/23 00:47:38;;;;;;;10.90;3.28;;;8.50;99.90;;;;;;5099165;28;20047;-84
2022/01/23 00:50:04;;;;;;;11.77;3.33;;;8.50;99.90;;;;;;5065561;28;20391;-83
2022/01/23 00:52:29;;;;;;;11.65;3.30;;;8.50;99.90;;;;;;5082298;28;20277;-83
2022/01/23 00:54:55;;;;;;;8.95;2.85;;;8.40;99.90;;;;;;5081675;28;20066;-83
2022/01/23 00:57:21;;;;;;;10.38;3.20;;;8.40;99.90;;;;;;5099068;28;20062;-83
2022/01/23 00:59:47;;;;;;;10.90;3.47;;;8.40;99.90;;;;;;5065528;28;20491;-83
2022/01/23 01:02:13;;;;;;;7.18;2.53;;;8.40;99.90;;;;;;5098959;28;20079;-83
2022/01/23 01:04:38;;;;;;;5.05;2.80;;;8.50;99.90;;;;;;5098893;28;20043;-84
2022/01/23 01:07:04;;;;;;;7.43;3.20;;;8.50;99.90;;;;;;5082486;28;20134;-83
2022/01/23 01:09:31;;;;;;;9.52;3.10;;;8.50;99.90;;;;;;5081748;28;20055;-83
2022/01/23 01:12:04;;;;;;;8.60;2.88;;;8.50;99.90;;;;;;5095242;28;20395;-83
2022/01/23 01:14:54;;;;;;;12.32;3.58;;;8.40;99.90;;;;;;5095928;28;20130;-83
2022/01/23 01:17:24;;;;;;;10.83;3.33;;;8.40;99.90;;;;;;5094832;28;20135;-84
2022/01/23 01:35:57;;;;;;;9.10;2.92;;;8.50;99.90;;;;;;5078732;28;20395;-83
2022/01/23 01:38:24;;;;;;;13.90;4.00;;;8.60;99.90;;;;;;5096611;28;20084;-83
2022/01/23 01:40:50;;;;;;;8.20;3.50;;;8.60;99.90;;;;;;5095332;28;20048;-83
2022/01/23 01:43:16;;;;;;;7.75;3.58;;;8.50;99.90;;;;;;5094864;28;20063;-83
2022/01/23 01:45:42;;;;;;;11.13;3.90;;;8.50;99.90;;;;;;5061661;28;20075;-84
2022/01/23 01:48:09;;;;;;;12.07;5.07;;;8.50;99.90;;;;;;5095035;28;20505;-84
2022/01/23 01:50:35;;;;;;;12.77;4.32;;;8.50;99.90;;;;;;5094996;28;20564;-84
2022/01/23 01:53:01;;;;;;;12.38;4.60;;;8.30;99.90;;;;;;5077643;28;20058;-83
2022/01/23 01:55:31;;;;;;;7.53;4.07;;;8.30;99.90;;;;;;5094762;28;20040;-83
2022/01/23 01:58:02;;;;;;;8.98;4.20;;;8.30;99.90;;;;;;5094885;28;20048;-83
2022/01/23 02:08:27;;;;;;;9.32;3.67;;;8.50;99.90;;;;;;5094863;28;20055;-83
2022/01/23 02:10:59;;;;;;;7.80;4.05;;;8.40;99.90;;;;;;5063022;28;20055;-83
2022/01/23 02:13:32;;;;;;;9.05;4.10;;;8.50;99.90;;;;;;5094645;28;20094;-83
2022/01/23 02:50:57;;;;;;;14.82;5.43;;;8.30;99.90;;;;;;5093988;28;20047;-83
2022/01/23 02:56:03;;;;;;;13.98;5.00;;;8.30;99.90;;;;;;5093309;28;20050;-83
2022/01/23 02:58:36;;;;;;;13.13;5.53;;;8.40;99.90;;;;;;5076967;28;20070;-83
2022/01/23 03:01:15;;;;;;;11.73;4.50;;;8.40;99.90;;;;;;5093760;28;20087;-83
2022/01/23 03:03:45;;;;;;;8.50;4.05;;;8.40;99.90;;;;;;5077444;28;20048;-83
2022/01/23 03:09:22;;;;;;;9.00;4.30;;;8.50;99.90;;;;;;5093065;28;20475;-82
2022/01/23 03:30:20;;;;;;;16.25;5.72;;;8.40;99.90;;;;;;5094268;28;20147;-83
2022/01/23 03:32:48;;;;;;;18.58;5.88;;;8.30;99.90;;;;;;5076480;28;20079;-83
2022/01/23 03:35:16;;;;;;;17.95;5.78;;;8.30;99.90;;;;;;5092501;28;20050;-83
2022/01/23 03:37:42;;;;;;;23.52;6.65;;;8.40;99.90;;;;;;5093864;28;20086;-83
2022/01/23 03:40:09;;;;;;;18.35;6.53;;;8.40;99.90;;;;;;5076254;28;20040;-83
2022/01/23 03:42:37;;;;;;;12.07;5.68;;;8.40;99.90;;;;;;5093549;28;20101;-83
2022/01/23 03:47:41;;;;;;;14.93;5.93;;;8.40;99.90;;;;;;5092982;28;20056;-83
2022/01/23 03:50:11;;;;;;;15.18;5.47;;;8.40;99.90;;;;;;5093079;28;20048;-83
2022/01/23 03:52:38;;;;;;;12.90;4.80;;;8.40;99.90;;;;;;5093970;28;20059;-83
2022/01/23 03:55:06;;;;;;;18.40;6.13;;;8.30;99.90;;;;;;5092842;28;20506;-83
2022/01/23 03:57:32;;;;;;;12.57;5.68;;;8.30;99.90;;;;;;5092794;28;20138;-83
2022/01/23 03:59:58;;;;;;;17.95;6.68;;;8.20;99.90;;;;;;5093118;28;20148;-83
2022/01/23 04:02:24;;;;;;;19.60;6.68;;;8.10;99.90;;;;;;5092801;28;20044;-83
2022/01/23 04:04:49;;;;;;;20.30;6.80;;;8.00;99.90;;;;;;5092809;28;20446;-83
2022/01/23 04:07:25;;;;;;;16.95;6.72;;;8.00;99.90;;;;;;5075919;28;20127;-82
2022/01/23 04:09:51;;;;;;;18.13;6.13;;;7.90;99.90;;;;;;5092275;28;20055;-82
2022/01/23 04:12:47;;;;;;;22.42;7.18;;;7.70;99.90;;;;;;5092693;28;20047;-83
2022/01/23 04:33:48;;;;;;;21.92;7.90;;;8.00;99.90;;;;;;5093012;28;20109;-83
2022/01/23 05:00:59;;;;;;;17.63;7.22;;;8.00;99.90;;;;;;5096339;28;20509;-82
2022/01/23 05:06:23;;;;;;;20.35;8.02;;;7.90;99.90;;;;;;5087642;28;20056;-82
2022/01/23 05:08:49;;;;;;;15.30;6.07;;;8.00;99.90;;;;;;5097073;28;20121;-82
2022/01/23 05:11:15;;;;;;;23.65;7.68;;;8.10;99.90;;;;;;5097175;28;20495;-82
2022/01/23 05:13:41;;;;;;;21.75;7.65;;;8.20;99.90;;;;;;5095736;28;20588;-82
2022/01/23 05:16:08;;;;;;;19.25;7.28;;;8.10;99.90;;;;;;5095077;28;20531;-82
2022/01/23 05:18:36;;;;;;;22.00;7.45;;;8.00;99.90;;;;;;5095668;28;20434;-83
2022/01/23 05:23:44;;;;;;;18.88;7.35;;;8.10;99.90;;;;;;5094847;28;20056;-82
2022/01/23 05:26:10;;;;;;;22.10;7.40;;;8.20;99.90;;;;;;5095366;28;20135;-83
2022/01/23 05:28:35;;;;;;;21.00;8.02;;;8.20;99.90;;;;;;5078625;28;20079;-82
2022/01/23 05:31:01;;;;;;;19.90;7.43;;;8.20;99.90;;;;;;5079821;28;20094;-82
2022/01/23 05:33:27;;;;;;;19.38;7.60;;;8.10;99.90;;;;;;5096581;28;20051;-82
2022/01/23 05:35:52;;;;;;;19.50;7.50;;;8.10;99.90;;;;;;5095967;28;20044;-82
2022/01/23 05:38:18;;;;;;;17.25;7.15;;;8.10;99.90;;;;;;5095434;28;20037;-82
2022/01/23 05:40:44;;;;;;;17.80;7.43;;;8.20;99.90;;;;;;5095234;28;20126;-82
2022/01/23 05:43:10;;;;;;;16.13;7.03;;;8.20;99.90;;;;;;5061684;28;20056;-82
2022/01/23 05:45:41;;;;;;;23.23;7.90;;;8.20;99.90;;;;;;5096226;28;20044;-82
2022/01/23 05:48:08;;;;;;;14.02;6.60;;;8.20;99.90;;;;;;5095178;28;20047;-82
2022/01/23 05:50:33;;;;;;;21.60;8.30;;;8.20;99.90;;;;;;5078581;28;20044;-82
2022/01/23 05:52:59;;;;;;;12.45;5.97;;;8.20;99.90;;;;;;5094975;28;20391;-82
2022/01/23 05:55:25;;;;;;;14.93;6.85;;;8.20;99.90;;;;;;5077603;28;20048;-82
2022/01/23 05:57:51;;;;;;;17.90;6.25;;;8.20;99.90;;;;;;5094360;28;20052;-82
2022/01/23 06:00:17;;;;;;;16.45;7.22;;;8.30;99.90;;;;;;5094931;28;20040;-82
2022/01/23 06:02:42;;;;;;;16.77;7.18;;;8.30;99.90;;;;;;5094820;28;20503;-82
2022/01/23 06:05:08;;;;;;;18.00;7.50;;;8.30;99.90;;;;;;5094645;28;20144;-82
2022/01/23 06:07:35;;;;;;;15.50;6.60;;;8.30;99.90;;;;;;5093917;28;20527;-82
2022/01/23 06:10:01;;;;;;;17.60;7.13;;;8.10;99.90;;;;;;5077270;28;20158;-82
2022/01/23 06:12:27;;;;;;;24.92;7.57;;;8.20;99.90;;;;;;5094688;28;20097;-82
2022/01/23 06:14:52;;;;;;;21.88;8.75;;;8.20;99.90;;;;;;5094526;28;20474;-82
2022/01/23 06:17:19;;;;;;;17.80;7.38;;;8.30;99.90;;;;;;5077793;28;20050;-82
2022/01/23 06:19:45;;;;;;;15.63;7.32;;;8.30;99.90;;;;;;5094113;28;20051;-82
2022/01/23 06:22:11;;;;;;;20.63;7.10;;;8.30;99.90;;;;;;5077557;28;20032;-82
2022/01/23 06:24:45;;;;;;;16.92;7.97;;;8.30;99.90;;;;;;5094143;28;20044;-82
2022/01/23 06:27:10;;;;;;;15.48;7.32;;;8.30;99.90;;;;;;5063775;28;20056;-83
2022/01/23 06:29:37;;;;;;;20.67;8.30;;;8.30;99.90;;;;;;5078089;28;20502;-82
2022/01/23 06:32:03;;;;;;;19.38;8.32;;;8.40;99.90;;;;;;5077396;28;20052;-82
2022/01/23 06:34:29;;;;;;;22.67;8.13;;;8.30;99.90;;;;;;5094444;28;20044;-82
2022/01/23 06:36:56;;;;;;;23.08;8.95;;;8.20;99.90;;;;;;5094144;28;20082;-82
2022/01/23 06:39:24;;;;;;;17.38;7.93;;;8.20;99.90;;;;;;5094017;28;20040;-82
2022/01/23 06:41:50;;;;;;;20.30;8.30;;;8.20;99.90;;;;;;5060530;28;20044;-82
2022/01/23 06:44:16;;;;;;;25.58;8.88;;;8.20;99.90;;;;;;5093979;28;20536;-82
2022/01/23 06:46:42;;;;;;;20.13;8.50;;;8.20;99.90;;;;;;5093938;28;20051;-82
2022/01/23 06:49:09;;;;;;;19.02;8.52;;;8.20;99.90;;;;;;5060537;28;20101;-82
2022/01/23 06:51:34;;;;;;;19.15;8.30;;;8.30;99.90;;;;;;5093554;28;20072;-82
2022/01/23 06:54:00;;;;;;;17.20;7.15;;;8.20;99.90;;;;;;5093478;28;20075;-82
2022/01/23 06:56:26;;;;;;;20.98;8.02;;;8.20;99.90;;;;;;5093765;28;20039;-82
2022/01/23 06:58:52;;;;;;;20.17;8.32;;;8.20;99.90;;;;;;5093639;28;20550;-82
2022/01/23 07:01:17;;;;;;;22.30;8.55;;;8.20;99.90;;;;;;5094003;28;20097;-82
2022/01/23 07:03:43;;;;;;;19.55;8.15;;;8.10;99.90;;;;;;5093632;28;20047;-82
2022/01/23 07:06:09;;;;;;;19.60;8.88;;;8.00;99.90;;;;;;5093512;28;20052;-82
2022/01/23 07:08:34;;;;;;;22.10;8.02;;;8.00;99.90;;;;;;5092882;28;20051;-82
2022/01/23 07:11:00;;;;;;;23.50;7.90;;;7.90;99.90;;;;;;5092922;28;20055;-82
2022/01/23 07:13:26;;;;;;;21.67;7.82;;;8.00;99.90;;;;;;5093171;28;20047;-82
2022/01/23 07:15:52;;;;;;;22.45;8.52;;;7.90;99.90;;;;;;5093300;28;20040;-82
2022/01/23 07:18:18;;;;;;;18.80;7.82;;;7.80;99.90;;;;;;5076753;28;20047;-82
2022/01/23 07:20:45;;;;;;;24.08;7.97;;;7.90;99.90;;;;;;5093358;28;20130;-82
2022/01/23 07:23:12;;;;;;;15.48;6.70;;;7.70;99.90;;;;;;5092586;28;20513;-82
2022/01/23 07:25:39;;;;;;;16.58;7.00;;;7.90;99.90;;;;;;5093119;28;20138;-82
2022/01/23 07:28:09;;;;;;;13.32;6.55;;;7.90;99.90;;;;;;5093715;28;20052;-82
2022/01/23 07:30:40;;;;;;;13.95;6.90;;;7.90;99.90;;;;;;5093132;28;20090;-83
2022/01/23 07:33:05;;;;;;;15.00;6.90;;;8.00;99.90;;;;;;5077420;28;20048;-82
2022/01/23 07:35:32;;;;;;;14.95;6.15;;;8.00;99.90;;;;;;5093074;28;20040;-82
2022/01/23 07:37:58;;;;;;;13.60;6.30;;;7.90;99.90;;;;;;5093062;28;20040;-75
2022/01/23 07:40:24;;;;;;;11.57;5.22;;;8.00;99.90;;;;;;5093025;28;20121;-74
2022/01/23 07:42:49;;;;;;;9.18;5.25;;;8.00;99.90;;;;;;5093047;28;20048;-74
2022/01/23 07:45:15;;;;;;;16.52;5.80;;;8.10;99.90;;;;;;5093678;28;20083;-75
2022/01/23 07:47:41;;;;;;;15.50;6.07;;;8.10;99.90;;;;;;5093029;28;20051;-74
2022/01/23 07:50:08;;;;;;;15.82;5.97;;;8.10;99.90;;;;;;5093888;28;20079;-73
2022/01/23 07:52:37;;;;;;;16.52;6.55;;;8.10;99.90;;;;;;5092909;28;20040;-73
2022/01/23 07:55:12;;;;;;;14.88;6.28;;;8.00;99.90;;;;;;5093336;28;20395;-74
2022/01/23 07:57:39;;;;;;;12.77;5.60;;;8.00;99.90;;;;;;5093030;28;20491;-73
2022/01/23 08:00:07;;;;;;;16.85;6.85;;;7.90;99.90;;;;;;5092785;28;20483;-74
2022/01/23 08:02:33;;;;;;;11.80;6.20;;;8.00;99.90;;;;;;5094352;28;20076;-74
2022/01/23 08:04:59;;;;;;;16.02;6.78;;;8.00;99.90;;;;;;5092839;28;20086;-73
2022/01/23 08:10:00;;;;;;;19.73;7.13;;;8.10;99.90;;;;;;5099502;28;20135;-75
2022/01/23 08:12:30;;;;;;;16.92;6.15;;;8.20;99.90;;;;;;5092919;28;20059;-71
2022/01/23 08:14:57;;;;;;;14.60;6.38;;;8.00;99.90;;;;;;5092777;28;20471;-71
2022/01/23 08:17:26;;;;;;;14.63;6.30;;;8.00;99.90;;;;;;5092698;28;20132;-71
2022/01/23 08:19:56;;;;;;;12.93;5.85;;;8.10;99.90;;;;;;5092895;28;20055;-71
2022/01/23 08:22:24;;;;;;;11.65;5.88;;;8.20;99.90;;;;;;5097710;28;20047;-71
2022/01/23 08:24:51;;;;;;;12.55;5.88;;;8.30;99.90;;;;;;5097303;28;20055;-71
2022/01/23 08:27:17;;;;;;;14.23;6.53;;;8.30;99.90;;;;;;5097800;28;20124;-71
2022/01/23 08:29:43;;;;;;;14.45;6.35;;;8.30;99.90;;;;;;5097553;28;20036;-71
2022/01/23 08:32:10;;;;;;;12.57;5.72;;;8.30;99.90;;;;;;5096444;28;20398;-71
2022/01/23 08:34:36;;;;;;;21.10;8.30;;;8.40;99.90;;;;;;5097647;28;20079;-71
2022/01/23 08:37:03;;;;;;;15.50;6.75;;;8.30;99.90;;;;;;5096622;28;20054;-71
2022/01/23 08:39:31;;;;;;;16.95;7.10;;;8.30;99.90;;;;;;5098092;28;20082;-71
2022/01/23 08:41:57;;;;;;;11.50;5.93;;;8.20;99.90;;;;;;5096548;28;20051;-73
2022/01/23 08:44:26;;;;;;;9.60;5.50;;;8.30;99.90;;;;;;5096341;28;20374;-73
2022/01/23 08:46:52;;;;;;;11.73;5.70;;;8.30;99.90;;;;;;5097223;28;20044;-74
2022/01/23 08:49:20;;;;;;;14.45;7.18;;;8.40;99.90;;;;;;5096157;28;20048;-73
2022/01/23 08:51:47;;;;;;;10.90;5.68;;;8.40;99.90;;;;;;5096433;28;20044;-88
2022/01/23 08:54:13;;;;;;;8.13;4.38;;;8.50;99.90;;;;;;5078840;28;20518;-86
2022/01/23 08:56:39;;;;;;;13.98;6.53;;;8.70;99.90;;;;;;5095949;28;20052;-70
2022/01/23 08:59:05;;;;;;;14.10;5.97;;;8.70;99.90;;;;;;5097010;28;20044;-72
2022/01/23 09:01:33;;;;;;;11.73;5.80;;;8.70;99.90;;;;;;5097038;28;20066;-72
2022/01/23 09:03:58;;;;;;;14.77;5.50;;;8.60;99.90;;;;;;5096980;28;20047;-72
2022/01/23 09:06:25;;;;;;;12.10;6.25;;;8.70;99.90;;;;;;5095454;28;20055;-72
2022/01/23 09:08:52;;;;;;;18.70;8.95;;;8.50;99.90;;;;;;5095853;28;20131;-72
2022/01/23 09:11:57;;;;;;;16.45;6.47;;;8.50;99.90;;;;;;5096906;28;20061;-72
2022/01/23 09:14:14;;;;;;;9.98;5.63;;;8.40;99.90;;;;;;5094133;28;20066;-71
2022/01/23 09:16:43;;;;;;;10.95;5.20;;;8.20;99.90;;;;;;5095797;28;20055;-71
2022/01/23 09:19:10;;;;;;;9.38;4.65;;;8.20;99.90;;;;;;5096687;28;20044;-72
2022/01/23 09:21:38;;;;;;;13.80;6.68;;;8.20;99.90;;;;;;5095637;28;20499;-71
2022/01/23 09:24:05;;;;;;;9.40;5.57;;;8.30;99.90;;;;;;5096057;28;20040;-72
2022/01/23 09:26:31;;;;;;;11.50;4.55;;;8.40;99.90;;;;;;5095555;28;20491;-73
2022/01/23 09:29:00;;;;;;;8.13;3.63;;;8.30;99.90;;;;;;5096472;28;20052;-72
2022/01/23 09:31:46;;;;;;;10.25;4.00;;;8.30;99.90;;;;;;5096077;28;20052;-72
2022/01/23 09:34:12;;;;;;;7.45;4.00;;;8.30;99.90;;;;;;5096928;28;20086;-73
2022/01/23 09:36:37;;;;;;;8.55;3.80;;;8.40;99.90;;;;;;5097050;28;20075;-72
2022/01/23 09:39:04;;;;;;;8.82;3.55;;;8.40;99.90;;;;;;5096256;28;20517;-72
2022/01/23 09:41:32;;;;;;;9.50;5.10;;;8.30;99.90;;;;;;5095057;28;20445;-72
2022/01/23 09:44:00;;;;;;;10.90;4.57;;;8.30;99.90;;;;;;5096145;28;20127;-72
2022/01/23 09:46:27;;;;;;;10.57;5.18;;;8.40;99.90;;;;;;5095167;28;20101;-72
2022/01/23 09:48:54;;;;;;;9.05;5.20;;;8.60;99.90;;;;;;5096034;28;20044;-72
2022/01/23 09:51:25;;;;;;;10.35;5.57;;;8.70;99.90;;;;;;5095512;28;20043;-73
2022/01/23 09:53:55;;;;;;;10.05;5.30;;;8.90;99.90;;;;;;5095569;28;20051;-72
2022/01/23 09:56:27;;;;;;;15.57;6.10;;;9.00;99.90;;;;;;5095869;28;20135;-72
2022/01/23 09:59:00;;;;;;;8.95;4.72;;;9.10;99.90;;;;;;5094957;28;20051;-72
2022/01/23 10:01:27;;;;;;;12.57;5.15;;;9.20;99.90;;;;;;5095817;28;20039;-72
2022/01/23 10:03:52;;;;;;;10.30;5.13;;;9.30;99.90;;;;;;5094849;28;20056;-72
2022/01/23 10:06:19;;;;;;;12.07;5.32;;;9.30;99.90;;;;;;5095516;28;20562;-72
2022/01/23 10:08:45;;;;;;;10.60;5.75;;;9.20;99.90;;;;;;5095684;28;20051;-72
2022/01/23 10:11:13;;;;;;;9.55;5.30;;;9.10;99.90;;;;;;5095481;28;20063;-73
2022/01/23 10:13:43;;;;;;;15.27;6.43;;;9.30;99.90;;;;;;5094631;28;20510;-72
2022/01/23 10:16:09;;;;;;;8.85;5.85;;;9.40;99.90;;;;;;5095835;28;20044;-72
2022/01/23 10:18:36;;;;;;;8.02;4.05;;;9.40;99.90;;;;;;5094473;28;20054;-72
2022/01/23 10:21:02;;;;;;;5.60;3.05;;;9.40;99.90;;;;;;5095505;28;20395;-73
2022/01/23 10:23:27;;;;;;;6.78;3.25;;;9.50;99.90;;;;;;5094896;28;20045;-73
2022/01/23 10:25:54;;;;;;;5.78;2.92;;;9.60;99.90;;;;;;5094909;28;20039;-72
2022/01/23 10:28:24;;;;;;;5.53;2.53;;;9.50;99.90;;;;;;5095760;28;20055;-72
2022/01/23 10:30:54;;;;;;;4.38;1.77;;;9.50;99.90;;;;;;5094221;28;20055;-73
2022/01/23 10:33:26;;;;;;;4.03;2.00;;;9.50;99.90;;;;;;5094500;28;20052;-73
2022/01/23 10:36:05;;;;;;;4.32;2.20;;;9.60;99.90;;;;;;5094797;28;20552;-73
2022/01/23 10:38:51;;;;;;;3.50;1.90;;;9.70;99.90;;;;;;5094641;28;20151;-72
2022/01/23 10:47:30;;;;;;;3.85;1.70;;;9.60;99.90;;;;;;5095031;28;20063;-72
2022/01/23 10:49:57;;;;;;;4.22;1.90;;;9.60;99.90;;;;;;5094544;28;20056;-73
2022/01/23 10:52:37;;;;;;;3.45;1.85;;;9.60;99.90;;;;;;5094861;28;20390;-73
2022/01/23 10:55:12;;;;;;;5.45;2.00;;;9.60;99.90;;;;;;5093306;28;20055;-73
2022/01/23 10:57:46;;;;;;;2.53;1.20;;;9.60;99.90;;;;;;5094850;28;20051;-72
2022/01/23 11:00:27;;;;;;;3.30;1.33;;;9.40;99.90;;;;;;5094738;28;20040;-73
2022/01/23 11:02:54;;;;;;;3.30;1.10;;;9.40;99.90;;;;;;5094699;28;20129;-72
2022/01/23 11:05:21;;;;;;;3.33;1.10;;;9.30;99.90;;;;;;5093628;28;20054;-72
2022/01/23 11:07:49;;;;;;;3.83;1.40;;;9.40;99.90;;;;;;5094559;28;20058;-72
2022/01/23 11:10:21;;;;;;;1.80;0.93;;;9.30;99.90;;;;;;5094319;28;20052;-73
2022/01/23 11:18:35;;;;;;;0.73;0.35;;;9.10;99.50;;;;;;5094356;28;20052;-72
2022/01/23 11:21:19;;;;;;;0.90;0.40;;;9.30;99.90;;;;;;5093357;28;20044;-72
2022/01/23 11:23:54;;;;;;;0.93;0.50;;;9.40;99.70;;;;;;5094325;28;20048;-73
2022/01/23 11:26:20;;;;;;;1.02;0.50;;;9.40;99.50;;;;;;5094330;28;20040;-72
2022/01/23 11:28:47;;;;;;;1.00;0.40;;;9.40;99.60;;;;;;5093208;28;20044;-72
2022/01/23 11:31:21;;;;;;;1.23;0.60;;;9.30;99.70;;;;;;5093122;28;20087;-73
2022/01/23 11:33:48;;;;;;;1.67;0.50;;;9.40;99.50;;;;;;5093169;28;20120;-72
2022/01/23 11:36:14;;;;;;;0.70;0.40;;;9.30;99.50;;;;;;5094014;28;20044;-72
2022/01/23 11:38:43;;;;;;;0.90;0.52;;;9.40;99.70;;;;;;5093870;28;20048;-72
2022/01/23 11:55:30;;;;;;;1.38;0.60;;;9.40;98.90;;;;;;5092976;28;20498;-72
2022/01/23 11:57:57;;;;;;;0.98;0.65;;;9.50;99.20;;;;;;5069882;28;20131;-80
2022/01/23 12:00:27;;;;;;;1.35;0.70;;;9.50;99.60;;;;;;5045055;28;20598;-78
2022/01/23 12:03:18;;;;;;;1.77;0.93;;;9.70;99.90;;;;;;5073910;28;20047;-72
2022/01/23 12:05:46;;;;;;;2.58;0.85;;;9.80;99.60;;;;;;5090079;28;20119;-73
2022/01/23 12:08:17;;;;;;;2.45;0.70;;;9.80;99.50;;;;;;5079963;28;20051;-77
2022/01/23 12:11:24;;;;;;;1.63;0.68;;;9.80;99.70;;;;;;5060704;28;20059;-77
2022/01/23 12:16:22;;;;;;;1.63;0.90;;;9.80;99.50;;;;;;5062292;28;20048;-79
2022/01/23 12:17:00;;;;;;;1.73;0.93;;;9.90;99.40;;;;;;5064041;28;20048;-78
2022/01/23 12:19:32;;;;;;;3.20;1.05;;;9.70;99.40;;;;;;5064337;28;20052;-77
2022/01/23 12:22:23;;;;;;;4.40;0.90;;;9.60;99.30;;;;;;5059847;28;20048;-81
2022/01/23 12:24:51;;;;;;;1.83;0.80;;;9.50;99.10;;;;;;5042167;28;20152;-79
2022/01/23 12:27:21;;;;;;;2.33;0.90;;;9.60;99.80;;;;;;5063726;28;20044;-79
2022/01/23 12:29:47;;;;;;;2.50;0.90;;;9.70;99.60;;;;;;5065092;28;20060;-72
2022/01/23 12:32:27;;;;;;;3.05;1.23;;;9.70;99.70;;;;;;5092264;28;20063;-79
2022/01/23 12:34:58;;;;;;;1.95;0.95;;;9.80;99.80;;;;;;5064120;28;20090;-79
2022/01/23 12:37:26;;;;;;;1.88;1.05;;;9.80;99.80;;;;;;5092429;28;20087;-77
2022/01/23 12:40:27;;;;;;;1.85;1.00;;;9.90;99.60;;;;;;5067887;28;20040;-73
2022/01/23 12:43:06;;;;;;;1.77;0.90;;;9.80;99.20;;;;;;5054693;28;20052;-73
2022/01/23 12:45:56;;;;;;;2.83;1.08;;;9.50;99.10;;;;;;5046664;28;20059;-78
2022/01/23 12:48:24;;;;;;;2.15;1.02;;;9.50;99.60;;;;;;5064964;28;20467;-78
2022/01/23 12:50:51;;;;;;;3.67;1.13;;;9.60;99.90;;;;;;5068178;28;20131;-75
2022/01/23 12:53:17;;;;;;;2.45;1.02;;;9.60;99.70;;;;;;5066366;28;20055;-76
2022/01/23 12:56:05;;;;;;;2.03;1.00;;;9.60;99.80;;;;;;5065749;28;20044;-80
2022/01/23 12:58:33;;;;;;;2.30;1.00;;;9.60;99.60;;;;;;5054706;28;20056;-75
2022/01/23 13:00:59;;;;;;;2.15;1.23;;;9.50;99.60;;;;;;5078328;28;20044;-74
2022/01/23 13:03:28;;;;;;;2.17;0.88;;;9.50;99.70;;;;;;5082608;28;20093;-75
2022/01/23 13:05:54;;;;;;;3.17;1.00;;;9.40;99.70;;;;;;5091710;28;20048;-75
2022/01/23 13:08:25;;;;;;;2.75;0.95;;;9.40;99.80;;;;;;5093881;28;20135;-76
2022/01/23 13:13:39;;;;;;;3.17;1.15;;;9.50;99.90;;;;;;5102207;28;20477;-73
2022/01/23 13:18:43;;;;;;;4.90;1.80;;;9.90;99.90;;;;;;5116819;28;20115;-73
2022/01/23 13:32:23;;;;;;;4.40;2.38;;;10.00;99.80;;;;;;5110813;28;20059;-73
2022/01/23 13:34:51;;;;;;;5.32;2.45;;;9.90;99.80;;;;;;5096892;28;20451;-73
2022/01/23 13:37:19;;;;;;;4.25;2.30;;;9.90;99.80;;;;;;5096258;28;20113;-73
2022/01/23 13:39:58;;;;;;;4.35;2.55;;;9.80;99.70;;;;;;5096288;28;20106;-73
2022/01/23 13:59:28;;;;;;;4.70;2.50;;;9.70;99.90;;;;;;5064150;28;20136;-77
2022/01/23 14:02:09;;;;;;;4.75;2.30;;;9.70;99.90;;;;;;5064253;28;20048;-72
2022/01/23 14:04:41;;;;;;;5.05;2.22;;;9.80;99.90;;;;;;5066309;28;20056;-76
2022/01/23 14:07:07;;;;;;;4.82;2.38;;;9.80;99.90;;;;;;5064759;28;20120;-80
2022/01/23 14:09:39;;;;;;;8.25;2.70;;;9.90;99.90;;;;;;5062963;28;20055;-75
2022/01/23 14:12:17;;;;;;;5.75;2.63;;;10.00;99.90;;;;;;5062221;28;20055;-75
2022/01/23 14:14:54;;;;;;;5.53;2.63;;;10.00;99.90;;;;;;5065661;28;20088;-77
2022/01/23 14:17:20;;;;;;;6.78;3.00;;;10.00;99.90;;;;;;5063802;28;20044;-77
2022/01/23 14:20:05;;;;;;;5.32;2.83;;;10.00;99.90;;;;;;5064206;28;20044;-79
2022/01/23 14:22:34;;;;;;;7.57;2.90;;;10.00;99.90;;;;;;5065648;28;20173;-72
2022/01/23 14:25:07;;;;;;;5.90;2.67;;;10.00;99.90;;;;;;5063541;28;20297;-75
2022/01/23 14:27:33;;;;;;;6.05;3.30;;;10.00;99.90;;;;;;5064977;28;20091;-78
2022/01/23 14:30:04;;;;;;;6.38;2.72;;;10.00;99.70;;;;;;5064565;28;20044;-73
2022/01/23 14:32:44;;;;;;;8.55;3.42;;;9.80;99.40;;;;;;5065392;28;20048;-74
2022/01/23 14:35:20;;;;;;;8.90;3.60;;;9.60;99.50;;;;;;5088538;28;20063;-72
2022/01/23 14:37:49;;;;;;;5.93;2.80;;;9.50;99.70;;;;;;5068984;28;20040;-78
2022/01/23 14:40:14;;;;;;;9.40;3.67;;;9.50;99.30;;;;;;5064990;28;20698;-77
2022/01/23 14:42:40;;;;;;;8.70;3.17;;;9.40;99.40;;;;;;5063310;28;20052;-77
2022/01/23 14:45:08;;;;;;;8.18;3.60;;;9.30;99.70;;;;;;5063373;28;20060;-77
2022/01/23 14:47:39;;;;;;;6.20;3.70;;;9.50;99.80;;;;;;5065673;28;20931;-72
2022/01/23 14:50:12;;;;;;;8.02;3.35;;;9.60;99.60;;;;;;5089728;28;20088;-73
2022/01/23 14:52:40;;;;;;;7.88;3.42;;;9.50;99.90;;;;;;5111246;28;20035;-73
2022/01/23 14:55:07;;;;;;;6.10;3.15;;;9.50;99.90;;;;;;5114626;28;20054;-73
2022/01/23 14:57:34;;;;;;;4.55;2.50;;;9.60;99.60;;;;;;5097107;28;20055;-74
2022/01/23 15:00:04;;;;;;;4.45;2.47;;;9.40;99.00;;;;;;5111829;28;20447;-73
2022/01/23 15:02:30;;;;;;;4.43;2.60;;;9.10;99.20;;;;;;5113647;28;20122;-73
2022/01/23 15:04:58;;;;;;;3.67;2.47;;;8.80;99.00;;;;;;5113388;28;20554;-72
2022/01/23 15:07:24;;;;;;;7.93;2.80;;;8.70;99.40;;;;;;5114043;28;20368;-73
2022/01/23 15:09:51;;;;;;;7.00;3.10;;;8.70;99.80;;;;;;5114070;28;20394;-73
2022/01/23 15:12:18;;;;;;;3.33;2.53;;;8.80;99.80;;;;;;5105569;28;20052;-73
2022/01/23 15:14:44;;;;;;;5.93;2.83;;;9.00;99.70;;;;;;5093569;28;20044;-73
2022/01/23 15:17:10;;;;;;;6.50;3.83;;;9.20;99.90;;;;;;5094390;28;20040;-73
2022/01/23 15:19:36;;;;;;;8.18;3.50;;;9.40;99.60;;;;;;5094374;28;20036;-73
2022/01/23 15:22:01;;;;;;;5.25;2.42;;;9.30;99.40;;;;;;5105540;28;20101;-71
2022/01/23 15:24:28;;;;;;;6.18;2.38;;;9.20;99.20;;;;;;5114098;28;20055;-73
2022/01/23 15:26:54;;;;;;;5.30;2.58;;;9.00;98.90;;;;;;5113866;28;20056;-72
2022/01/23 15:29:20;;;;;;;7.38;2.80;;;9.00;98.90;;;;;;5114218;28;20370;-72
2022/01/23 15:31:47;;;;;;;9.25;3.13;;;8.90;99.50;;;;;;5112761;28;20043;-73
2022/01/23 15:34:15;;;;;;;5.93;3.17;;;9.10;99.70;;;;;;5096656;28;20379;-73
2022/01/23 15:36:42;;;;;;;7.97;3.33;;;9.20;99.40;;;;;;5094557;28;20048;-73
2022/01/23 15:39:07;;;;;;;5.30;2.80;;;9.30;99.40;;;;;;5101124;28;20382;-72
2022/01/23 15:41:34;;;;;;;4.40;2.70;;;9.30;99.30;;;;;;5096663;28;20047;-73
2022/01/23 15:43:59;;;;;;;7.53;2.80;;;9.30;99.70;;;;;;5093041;28;20113;-73
2022/01/23 15:46:25;;;;;;;5.85;3.35;;;9.50;99.90;;;;;;5093986;28;20044;-73
2022/01/23 15:48:51;;;;;;;7.07;3.58;;;9.50;99.80;;;;;;5093706;28;20111;-73
2022/01/23 15:51:17;;;;;;;8.02;3.53;;;9.50;99.50;;;;;;5093947;28;20087;-73
2022/01/23 15:53:43;;;;;;;10.35;3.58;;;9.50;99.40;;;;;;5126548;27;20102;-73
2022/01/23 15:56:08;;;;;;;7.38;3.15;;;9.50;99.30;;;;;;5093766;28;20032;-73
2022/01/23 15:58:34;;;;;;;7.28;4.05;;;9.40;99.20;;;;;;5104848;28;20055;-73
2022/01/23 16:01:00;;;;;;;7.05;3.40;;;9.40;99.40;;;;;;5095752;28;20048;-73
2022/01/23 16:03:27;;;;;;;9.60;3.40;;;9.40;99.50;;;;;;5114125;28;20122;-73
2022/01/23 16:05:54;;;;;;;8.20;3.10;;;9.40;99.40;;;;;;5110976;28;20092;-73
2022/01/23 16:08:20;;;;;;;7.07;3.03;;;9.40;99.40;;;;;;5114110;28;20224;-73
2022/01/23 16:10:46;;;;;;;5.22;2.72;;;9.50;99.30;;;;;;5114086;28;20047;-73
2022/01/23 16:13:12;;;;;;;6.20;3.10;;;9.50;99.40;;;;;;5114106;28;20047;-73
2022/01/23 16:15:38;;;;;;;5.70;2.80;;;9.60;99.40;;;;;;5113910;28;20054;-73
2022/01/23 16:18:03;;;;;;;5.13;3.15;;;9.50;99.30;;;;;;5096086;28;20043;-73
2022/01/23 16:20:29;;;;;;;6.00;3.30;;;9.50;99.50;;;;;;5095288;28;20076;-87
2022/01/23 16:22:55;;;;;;;5.07;2.95;;;9.50;99.70;;;;;;5092853;28;20043;-87
2022/01/23 16:25:22;;;;;;;7.75;2.97;;;9.50;99.80;;;;;;5075307;28;20074;-87
2022/01/23 16:27:49;;;;;;;7.00;2.50;;;9.60;99.70;;;;;;5092848;28;20491;-83
2022/01/23 16:30:16;;;;;;;6.22;2.65;;;9.50;99.30;;;;;;5092618;28;20048;-83